Time;durP1;ratioP1;P1;durP2;ratioP2;P2;SDS_P1;SDS_P2;PMS_P1;PMS_P2;Temp;Humidity;BMP_temperature;BMP_pressure;BME280_temperature;BME280_humidity;BME280_pressure;Samples;Min_cycle;Max_cycle;Signal;HPM_P1;HPM_P2
2023/09/29 00:01:13;;;;;;;9.32;4.40;;;;;;;;;;5115019;27;20027;-72
2023/09/29 00:03:39;;;;;;;9.63;4.85;;;;;;;;;;5113723;27;20023;-71
2023/09/29 00:06:04;;;;;;;10.13;6.35;;;;;;;;;;5113433;27;20745;-71
2023/09/29 00:08:30;;;;;;;14.13;9.48;;;;;;;;;;5115944;27;20122;-71
2023/09/29 00:10:55;;;;;;;13.38;9.50;;;;;;;;;;5110713;27;20063;-70
2023/09/29 00:13:20;;;;;;;10.85;7.90;;;;;;;;;;5115348;27;20430;-70
2023/09/29 00:15:48;;;;;;;14.73;6.90;;;;;;;;;;5112416;27;20439;-72
2023/09/29 00:18:15;;;;;;;5.95;4.43;;;;;;;;;;5106788;27;20490;-73
2023/09/29 00:20:40;;;;;;;5.78;3.65;;;;;;;;;;5113570;27;20740;-72
2023/09/29 00:23:06;;;;;;;6.38;4.60;;;;;;;;;;5113901;27;20015;-72
2023/09/29 00:25:31;;;;;;;7.82;4.15;;;;;;;;;;5103442;27;20319;-72
2023/09/29 00:27:57;;;;;;;6.65;4.07;;;;;;;;;;5147556;27;20446;-72
2023/09/29 00:30:23;;;;;;;9.07;4.00;;;;;;;;;;5114902;27;20030;-73
2023/09/29 00:32:49;;;;;;;6.57;4.18;;;;;;;;;;5115678;27;20834;-71
2023/09/29 00:35:18;;;;;;;6.93;4.15;;;;;;;;;;5114694;27;20069;-71
2023/09/29 00:37:44;;;;;;;8.30;3.73;;;;;;;;;;5113857;27;20343;-72
2023/09/29 00:40:12;;;;;;;7.15;4.35;;;;;;;;;;5113824;27;20042;-73
2023/09/29 00:42:38;;;;;;;9.00;4.80;;;;;;;;;;5115492;27;20027;-71
2023/09/29 00:45:04;;;;;;;5.63;5.03;;;;;;;;;;5115955;27;20046;-72
2023/09/29 00:47:29;;;;;;;8.02;4.95;;;;;;;;;;5108379;27;20022;-72
2023/09/29 00:49:54;;;;;;;7.30;4.65;;;;;;;;;;5114962;27;20033;-73
2023/09/29 00:52:23;;;;;;;10.68;6.15;;;;;;;;;;5116067;27;20019;-71
2023/09/29 00:54:50;;;;;;;7.60;5.10;;;;;;;;;;5112075;27;20466;-70
2023/09/29 00:57:16;;;;;;;7.20;4.18;;;;;;;;;;5114241;27;20537;-72
2023/09/29 00:59:42;;;;;;;7.53;4.78;;;;;;;;;;5115143;27;20116;-70
2023/09/29 01:02:09;;;;;;;5.57;4.80;;;;;;;;;;5113463;27;20083;-71
2023/09/29 01:04:35;;;;;;;6.82;4.82;;;;;;;;;;5113982;27;20015;-73
2023/09/29 01:07:01;;;;;;;8.45;5.45;;;;;;;;;;5112211;27;20052;-73
2023/09/29 01:09:27;;;;;;;7.35;5.15;;;;;;;;;;5112917;27;20035;-71
2023/09/29 01:11:52;;;;;;;6.15;4.28;;;;;;;;;;5111747;27;20465;-71
2023/09/29 01:14:18;;;;;;;7.07;4.97;;;;;;;;;;5112031;27;20323;-72
2023/09/29 01:16:44;;;;;;;12.43;5.30;;;;;;;;;;5101663;27;20054;-72
2023/09/29 01:19:13;;;;;;;8.98;4.80;;;;;;;;;;5105749;27;20036;-72
2023/09/29 01:21:44;;;;;;;8.60;5.00;;;;;;;;;;5139255;27;20024;-72
2023/09/29 01:24:10;;;;;;;7.57;4.10;;;;;;;;;;5114290;28;20254;-70
2023/09/29 01:26:35;;;;;;;8.40;4.30;;;;;;;;;;5113970;28;20028;-73
2023/09/29 01:29:00;;;;;;;6.40;4.30;;;;;;;;;;5112208;27;20028;-73
2023/09/29 01:31:26;;;;;;;7.88;4.65;;;;;;;;;;5112760;28;20358;-73
2023/09/29 01:33:51;;;;;;;6.32;4.47;;;;;;;;;;5106972;27;20074;-74
2023/09/29 01:36:17;;;;;;;8.85;4.97;;;;;;;;;;5114108;27;20438;-73
2023/09/29 01:38:42;;;;;;;7.65;5.50;;;;;;;;;;5113586;27;20804;-71
2023/09/29 01:41:08;;;;;;;9.32;5.88;;;;;;;;;;5112337;28;20027;-71
2023/09/29 01:43:34;;;;;;;10.10;6.03;;;;;;;;;;5112739;28;20589;-72
2023/09/29 01:46:00;;;;;;;8.95;5.80;;;;;;;;;;5113122;27;20030;-71
2023/09/29 01:48:25;;;;;;;9.27;5.97;;;;;;;;;;5114266;28;20038;-74
2023/09/29 01:50:51;;;;;;;8.07;5.00;;;;;;;;;;5105193;28;20104;-72
2023/09/29 01:53:16;;;;;;;11.70;6.28;;;;;;;;;;5114821;28;20124;-73
2023/09/29 01:55:42;;;;;;;10.73;6.40;;;;;;;;;;5104268;28;20040;-73
2023/09/29 01:58:07;;;;;;;8.38;4.43;;;;;;;;;;5111254;28;20395;-76
2023/09/29 02:00:32;;;;;;;7.43;4.40;;;;;;;;;;5144826;27;20027;-73
2023/09/29 02:03:03;;;;;;;7.45;4.90;;;;;;;;;;5115833;27;20442;-73
2023/09/29 02:05:28;;;;;;;7.75;4.53;;;;;;;;;;5113702;27;20485;-72
2023/09/29 02:07:54;;;;;;;7.53;4.95;;;;;;;;;;5111661;27;20110;-71
2023/09/29 02:10:21;;;;;;;9.45;5.05;;;;;;;;;;5113535;27;20106;-73
2023/09/29 02:12:53;;;;;;;9.68;5.47;;;;;;;;;;5113316;27;20106;-72
2023/09/29 02:15:19;;;;;;;5.78;4.15;;;;;;;;;;5114566;28;20074;-72
2023/09/29 02:17:47;;;;;;;6.40;4.72;;;;;;;;;;5114532;27;20043;-72
2023/09/29 02:20:21;;;;;;;6.22;4.07;;;;;;;;;;5103484;28;20339;-71
2023/09/29 02:22:47;;;;;;;6.40;4.32;;;;;;;;;;5117399;27;20532;-71
2023/09/29 02:25:15;;;;;;;8.20;4.20;;;;;;;;;;5118386;27;20106;-71
2023/09/29 02:27:40;;;;;;;6.07;4.07;;;;;;;;;;5116326;27;20028;-71
2023/09/29 02:30:08;;;;;;;5.70;4.03;;;;;;;;;;5115977;27;20158;-72
2023/09/29 02:32:34;;;;;;;4.93;3.85;;;;;;;;;;5117950;27;20338;-72
2023/09/29 02:35:00;;;;;;;5.30;4.25;;;;;;;;;;5117972;27;20055;-73
2023/09/29 02:37:25;;;;;;;8.85;3.78;;;;;;;;;;5114206;27;20031;-72
2023/09/29 02:39:51;;;;;;;7.32;3.67;;;;;;;;;;5109079;27;20037;-73
2023/09/29 02:42:17;;;;;;;7.80;3.80;;;;;;;;;;5118568;27;20035;-72
2023/09/29 02:44:43;;;;;;;5.20;3.85;;;;;;;;;;5106335;27;20072;-72
2023/09/29 02:47:08;;;;;;;6.45;3.92;;;;;;;;;;5116785;27;20019;-74
2023/09/29 02:49:34;;;;;;;6.95;4.30;;;;;;;;;;5112689;27;20027;-73
2023/09/29 02:52:04;;;;;;;5.55;4.03;;;;;;;;;;5104900;27;20035;-74
2023/09/29 02:54:29;;;;;;;7.47;3.88;;;;;;;;;;5148290;27;21354;-72
2023/09/29 02:56:56;;;;;;;6.90;3.92;;;;;;;;;;5117829;27;20068;-73
2023/09/29 02:59:23;;;;;;;6.97;4.40;;;;;;;;;;5118369;27;20032;-73
2023/09/29 03:01:49;;;;;;;6.05;4.03;;;;;;;;;;5105206;27;20034;-74
2023/09/29 03:04:15;;;;;;;7.35;4.22;;;;;;;;;;5117850;27;20027;-73
2023/09/29 03:06:40;;;;;;;8.05;4.32;;;;;;;;;;5115194;27;20074;-74
2023/09/29 03:09:06;;;;;;;7.68;3.85;;;;;;;;;;5119021;27;20035;-72
2023/09/29 03:11:31;;;;;;;5.05;3.78;;;;;;;;;;5115102;27;20353;-71
2023/09/29 03:13:56;;;;;;;5.50;4.05;;;;;;;;;;5115144;27;20023;-72
2023/09/29 03:16:25;;;;;;;4.10;3.70;;;;;;;;;;5116284;27;20019;-72
2023/09/29 03:18:51;;;;;;;5.10;3.73;;;;;;;;;;5116358;27;20491;-72
2023/09/29 03:21:16;;;;;;;6.97;4.20;;;;;;;;;;5117867;27;20259;-73
2023/09/29 03:23:42;;;;;;;7.38;4.05;;;;;;;;;;5115672;27;20033;-72
2023/09/29 03:26:08;;;;;;;6.80;4.03;;;;;;;;;;5106054;27;20125;-72
2023/09/29 03:28:34;;;;;;;6.95;3.95;;;;;;;;;;5118996;27;20110;-75
2023/09/29 03:31:02;;;;;;;9.30;3.63;;;;;;;;;;5118197;27;20031;-74
2023/09/29 03:33:27;;;;;;;10.07;4.13;;;;;;;;;;5114124;27;20092;-71
2023/09/29 03:35:54;;;;;;;7.50;4.20;;;;;;;;;;5112682;27;20026;-71
2023/09/29 03:38:20;;;;;;;9.35;4.90;;;;;;;;;;5108428;27;20339;-72
2023/09/29 03:40:50;;;;;;;7.03;4.00;;;;;;;;;;5117365;27;20025;-72
2023/09/29 03:43:15;;;;;;;8.35;4.40;;;;;;;;;;5111071;27;20721;-71
2023/09/29 03:45:41;;;;;;;6.15;3.88;;;;;;;;;;5116057;27;20133;-72
2023/09/29 03:48:06;;;;;;;6.22;3.42;;;;;;;;;;5115759;27;20361;-72
2023/09/29 03:50:32;;;;;;;7.30;4.00;;;;;;;;;;5117394;27;20046;-72
2023/09/29 03:52:59;;;;;;;6.38;4.28;;;;;;;;;;5114845;27;20023;-71
2023/09/29 03:55:24;;;;;;;8.18;4.10;;;;;;;;;;5115987;27;20105;-74
2023/09/29 03:57:50;;;;;;;6.78;3.85;;;;;;;;;;5115107;27;20497;-72
2023/09/29 04:00:18;;;;;;;7.28;4.13;;;;;;;;;;5115980;27;20035;-73
2023/09/29 04:02:43;;;;;;;5.22;3.95;;;;;;;;;;5112815;27;20350;-72
2023/09/29 04:05:09;;;;;;;4.95;4.20;;;;;;;;;;5107903;27;20019;-72
2023/09/29 04:07:36;;;;;;;4.70;3.88;;;;;;;;;;5105166;27;20362;-75
2023/09/29 04:10:02;;;;;;;6.85;3.95;;;;;;;;;;5104686;27;20130;-74
2023/09/29 04:12:27;;;;;;;8.15;4.88;;;;;;;;;;5103426;27;20039;-73
2023/09/29 04:14:53;;;;;;;5.18;4.32;;;;;;;;;;5103750;27;20146;-72
2023/09/29 04:17:18;;;;;;;6.22;3.92;;;;;;;;;;5101419;27;20075;-73
2023/09/29 04:19:44;;;;;;;9.23;4.10;;;;;;;;;;5102869;27;20114;-71
2023/09/29 04:22:09;;;;;;;8.10;4.85;;;;;;;;;;5113390;27;20073;-71
2023/09/29 04:24:36;;;;;;;7.03;4.43;;;;;;;;;;5115453;27;20039;-74
2023/09/29 04:27:01;;;;;;;7.35;4.50;;;;;;;;;;5111161;27;20038;-73
2023/09/29 04:29:26;;;;;;;6.20;4.40;;;;;;;;;;5112879;27;20283;-75
2023/09/29 04:31:52;;;;;;;9.80;4.32;;;;;;;;;;5114050;27;20027;-73
2023/09/29 04:34:17;;;;;;;8.80;4.38;;;;;;;;;;5105653;27;20072;-72
2023/09/29 04:36:42;;;;;;;7.00;4.65;;;;;;;;;;5104654;27;20070;-73
2023/09/29 04:39:08;;;;;;;4.97;3.83;;;;;;;;;;5112610;27;20026;-73
2023/09/29 04:41:34;;;;;;;7.53;4.30;;;;;;;;;;5147934;27;20051;-74
2023/09/29 04:44:00;;;;;;;6.45;4.15;;;;;;;;;;5115861;27;20038;-75
2023/09/29 04:46:26;;;;;;;11.13;4.70;;;;;;;;;;5114084;27;20110;-74
2023/09/29 04:48:53;;;;;;;10.32;4.82;;;;;;;;;;5111027;27;20042;-74
2023/09/29 04:51:18;;;;;;;8.73;4.18;;;;;;;;;;5107030;27;20458;-74
2023/09/29 04:53:44;;;;;;;8.70;4.57;;;;;;;;;;5113671;27;20051;-74
2023/09/29 04:56:09;;;;;;;5.90;4.18;;;;;;;;;;5113598;27;20033;-76
2023/09/29 04:58:34;;;;;;;5.20;3.97;;;;;;;;;;5112315;27;20122;-74
2023/09/29 05:01:01;;;;;;;9.35;4.40;;;;;;;;;;5113607;27;20055;-74
2023/09/29 05:03:27;;;;;;;7.10;4.35;;;;;;;;;;5112600;27;20030;-72
2023/09/29 05:05:52;;;;;;;8.63;4.75;;;;;;;;;;5113812;27;20024;-73
2023/09/29 05:08:18;;;;;;;8.80;4.70;;;;;;;;;;5111604;27;20034;-72
2023/09/29 05:10:44;;;;;;;9.20;5.00;;;;;;;;;;5112903;27;20456;-73
2023/09/29 05:13:09;;;;;;;10.27;5.63;;;;;;;;;;5114017;27;20365;-73
2023/09/29 05:15:36;;;;;;;10.93;6.47;;;;;;;;;;5098496;27;20033;-74
2023/09/29 05:18:02;;;;;;;8.73;6.15;;;;;;;;;;5108694;27;20331;-72
2023/09/29 05:20:28;;;;;;;12.55;7.05;;;;;;;;;;5113059;27;20012;-72
2023/09/29 05:22:53;;;;;;;15.15;9.05;;;;;;;;;;5113832;27;20026;-72
2023/09/29 05:25:18;;;;;;;11.93;9.60;;;;;;;;;;5115911;27;20038;-75
2023/09/29 05:27:44;;;;;;;12.57;8.88;;;;;;;;;;5113267;27;20122;-73
2023/09/29 05:30:09;;;;;;;11.38;8.48;;;;;;;;;;5105740;27;20369;-73
2023/09/29 05:32:35;;;;;;;13.27;7.05;;;;;;;;;;5112795;27;20659;-72
2023/09/29 05:35:00;;;;;;;9.38;6.60;;;;;;;;;;5114767;27;20043;-74
2023/09/29 05:37:25;;;;;;;12.15;6.20;;;;;;;;;;5114873;27;20897;-72
2023/09/29 05:39:51;;;;;;;8.60;5.88;;;;;;;;;;5113166;27;20031;-72
2023/09/29 05:42:20;;;;;;;10.68;5.82;;;;;;;;;;5115822;28;20032;-73
2023/09/29 05:44:45;;;;;;;10.90;7.88;;;;;;;;;;5111719;27;20073;-72
2023/09/29 05:47:11;;;;;;;15.30;13.43;;;;;;;;;;5113701;27;20519;-73
2023/09/29 05:49:36;;;;;;;19.23;11.18;;;;;;;;;;5114315;28;20028;-72
2023/09/29 05:52:02;;;;;;;10.48;7.20;;;;;;;;;;5113920;28;20023;-71
2023/09/29 05:54:27;;;;;;;9.05;5.93;;;;;;;;;;5113518;27;20029;-72
2023/09/29 05:56:53;;;;;;;13.73;6.13;;;;;;;;;;5115771;27;20023;-72
2023/09/29 05:59:18;;;;;;;11.95;7.03;;;;;;;;;;5110511;27;20031;-74
2023/09/29 06:01:44;;;;;;;20.52;16.50;;;;;;;;;;5112225;27;20038;-73
2023/09/29 06:04:09;;;;;;;23.50;18.15;;;;;;;;;;5119270;27;20110;-72
2023/09/29 06:06:34;;;;;;;18.63;16.00;;;;;;;;;;5117672;27;20410;-75
2023/09/29 06:09:00;;;;;;;24.58;15.98;;;;;;;;;;5117311;27;20448;-72
2023/09/29 06:11:25;;;;;;;19.60;15.07;;;;;;;;;;5114736;27;20085;-72
2023/09/29 06:13:50;;;;;;;21.90;16.38;;;;;;;;;;5113964;27;20026;-74
2023/09/29 06:16:16;;;;;;;20.10;16.00;;;;;;;;;;5114614;27;20102;-71
2023/09/29 06:18:41;;;;;;;18.48;15.10;;;;;;;;;;5104453;27;20129;-73
2023/09/29 06:21:07;;;;;;;19.73;13.02;;;;;;;;;;5111602;27;20326;-72
2023/09/29 06:23:32;;;;;;;17.83;13.32;;;;;;;;;;5118183;27;22502;-73
2023/09/29 06:26:01;;;;;;;19.80;15.00;;;;;;;;;;5116001;27;20023;-72
2023/09/29 06:28:27;;;;;;;18.88;14.68;;;;;;;;;;5111637;27;20115;-72
2023/09/29 06:30:56;;;;;;;19.13;14.88;;;;;;;;;;5116673;27;20063;-73
2023/09/29 06:33:21;;;;;;;18.08;14.82;;;;;;;;;;5116648;27;20116;-73
2023/09/29 06:35:47;;;;;;;20.15;14.57;;;;;;;;;;5114765;27;20761;-72
2023/09/29 06:38:13;;;;;;;19.38;14.10;;;;;;;;;;5117326;27;20031;-75
2023/09/29 06:40:38;;;;;;;23.05;12.70;;;;;;;;;;5115444;27;20037;-74
2023/09/29 06:43:03;;;;;;;15.65;10.15;;;;;;;;;;5117324;27;20460;-72
2023/09/29 06:45:31;;;;;;;13.10;10.52;;;;;;;;;;5118353;27;20446;-72
2023/09/29 06:47:56;;;;;;;14.45;10.32;;;;;;;;;;5113925;27;20034;-72
2023/09/29 06:50:22;;;;;;;14.27;10.98;;;;;;;;;;5116517;27;20028;-72
2023/09/29 06:52:47;;;;;;;14.18;9.50;;;;;;;;;;5116394;27;20055;-74
2023/09/29 06:55:13;;;;;;;21.65;9.77;;;;;;;;;;5118026;27;20104;-72
2023/09/29 06:57:38;;;;;;;17.33;9.15;;;;;;;;;;5117350;27;20093;-74
2023/09/29 07:00:08;;;;;;;10.68;5.90;;;;;;;;;;5119143;27;20038;-71
2023/09/29 07:02:34;;;;;;;8.15;5.03;;;;;;;;;;5116325;27;20037;-71
2023/09/29 07:04:59;;;;;;;11.65;5.80;;;;;;;;;;5117898;27;20023;-74
2023/09/29 07:07:24;;;;;;;11.30;5.05;;;;;;;;;;5117182;27;20490;-71
2023/09/29 07:09:50;;;;;;;9.32;5.40;;;;;;;;;;5117195;27;20049;-72
2023/09/29 07:12:15;;;;;;;9.88;5.22;;;;;;;;;;5117292;27;20115;-71
2023/09/29 07:14:41;;;;;;;8.65;4.70;;;;;;;;;;5115323;27;20038;-71
2023/09/29 07:17:07;;;;;;;8.90;5.05;;;;;;;;;;5117912;27;20109;-72
2023/09/29 07:19:32;;;;;;;11.55;5.40;;;;;;;;;;5115441;27;20045;-71
2023/09/29 07:21:57;;;;;;;19.48;9.05;;;;;;;;;;5117137;27;20786;-72
2023/09/29 07:24:23;;;;;;;14.13;9.75;;;;;;;;;;5118626;27;20027;-71
2023/09/29 07:26:48;;;;;;;19.10;10.23;;;;;;;;;;5113737;27;20019;-73
2023/09/29 07:29:13;;;;;;;17.17;11.60;;;;;;;;;;5115950;27;20099;-71
2023/09/29 07:31:46;;;;;;;21.85;11.82;;;;;;;;;;5115414;27;20027;-71
2023/09/29 07:34:12;;;;;;;17.00;11.35;;;;;;;;;;5115354;27;20126;-71
2023/09/29 07:36:39;;;;;;;17.65;11.15;;;;;;;;;;5117414;27;20530;-71
2023/09/29 07:39:04;;;;;;;19.25;11.43;;;;;;;;;;5114281;27;20058;-74
2023/09/29 07:41:30;;;;;;;18.58;11.15;;;;;;;;;;5112784;27;20077;-72
2023/09/29 07:43:56;;;;;;;21.00;11.25;;;;;;;;;;5114561;27;20365;-71
2023/09/29 07:46:22;;;;;;;20.10;13.75;;;;;;;;;;5114774;27;20688;-72
2023/09/29 07:48:47;;;;;;;18.48;11.57;;;;;;;;;;5114023;27;20046;-74
2023/09/29 07:51:12;;;;;;;20.67;9.95;;;;;;;;;;5106667;27;20121;-72
2023/09/29 07:53:38;;;;;;;15.90;9.90;;;;;;;;;;5136135;27;20430;-72
2023/09/29 07:56:03;;;;;;;12.95;8.27;;;;;;;;;;5108929;27;20434;-73
2023/09/29 07:58:28;;;;;;;15.15;8.27;;;;;;;;;;5111451;27;20027;-72
2023/09/29 08:00:54;;;;;;;14.70;6.65;;;;;;;;;;5114926;27;20434;-71
2023/09/29 08:03:19;;;;;;;12.18;7.63;;;;;;;;;;5115204;27;20027;-72
2023/09/29 08:05:44;;;;;;;18.27;10.55;;;;;;;;;;5115094;27;20350;-70
2023/09/29 08:08:10;;;;;;;10.98;6.97;;;;;;;;;;5113908;27;20148;-72
2023/09/29 08:10:35;;;;;;;11.60;6.30;;;;;;;;;;5115398;27;20015;-71
2023/09/29 08:13:01;;;;;;;11.23;5.38;;;;;;;;;;5115062;27;20071;-76
2023/09/29 08:15:26;;;;;;;13.10;6.05;;;;;;;;;;5115268;27;20038;-73
2023/09/29 08:17:51;;;;;;;15.77;5.82;;;;;;;;;;5115685;27;20027;-72
2023/09/29 08:20:18;;;;;;;18.25;8.98;;;;;;;;;;5115692;27;20027;-70
2023/09/29 08:22:43;;;;;;;7.55;4.85;;;;;;;;;;5114440;27;20019;-71
2023/09/29 08:25:09;;;;;;;9.32;6.10;;;;;;;;;;5113992;27;20019;-72
2023/09/29 08:27:35;;;;;;;13.40;5.68;;;;;;;;;;5114101;27;20041;-71
2023/09/29 08:30:01;;;;;;;14.18;4.80;;;;;;;;;;5111052;27;20122;-71
2023/09/29 08:32:26;;;;;;;14.07;5.43;;;;;;;;;;5117592;27;20027;-72
2023/09/29 08:34:52;;;;;;;8.02;4.72;;;;;;;;;;5114436;27;20043;-71
2023/09/29 08:37:17;;;;;;;10.82;4.47;;;;;;;;;;5110655;27;20365;-73
2023/09/29 08:39:42;;;;;;;9.95;4.28;;;;;;;;;;5106646;27;20114;-71
2023/09/29 08:42:12;;;;;;;8.07;4.38;;;;;;;;;;5116752;27;20027;-71
2023/09/29 08:44:39;;;;;;;7.28;4.15;;;;;;;;;;5116642;27;20015;-71
2023/09/29 08:47:06;;;;;;;9.55;4.50;;;;;;;;;;5115461;27;20020;-71
2023/09/29 08:49:32;;;;;;;5.55;4.20;;;;;;;;;;5110488;27;20110;-71
2023/09/29 08:52:00;;;;;;;6.82;4.15;;;;;;;;;;5115381;27;20142;-71
2023/09/29 08:54:27;;;;;;;8.05;3.95;;;;;;;;;;5113922;27;20027;-73
2023/09/29 08:56:52;;;;;;;8.15;4.40;;;;;;;;;;5115248;27;20025;-73
2023/09/29 08:59:18;;;;;;;10.02;4.30;;;;;;;;;;5115982;27;20119;-71
2023/09/29 09:01:46;;;;;;;10.00;4.15;;;;;;;;;;5115344;27;20034;-71
2023/09/29 09:04:11;;;;;;;12.20;4.10;;;;;;;;;;5112012;27;20030;-70
2023/09/29 09:06:37;;;;;;;10.65;4.85;;;;;;;;;;5115657;27;20019;-70
2023/09/29 09:09:03;;;;;;;9.13;4.32;;;;;;;;;;5115387;27;20023;-74
2023/09/29 09:11:29;;;;;;;7.15;4.03;;;;;;;;;;5115161;27;20032;-71
2023/09/29 09:13:58;;;;;;;9.77;4.35;;;;;;;;;;5112776;27;20089;-71
2023/09/29 09:16:24;;;;;;;7.05;4.10;;;;;;;;;;5113432;27;20072;-70
2023/09/29 09:18:50;;;;;;;10.68;3.95;;;;;;;;;;5113908;27;20370;-72
2023/09/29 09:21:15;;;;;;;9.82;4.07;;;;;;;;;;5110368;27;20706;-71
2023/09/29 09:23:41;;;;;;;9.85;4.07;;;;;;;;;;5114081;27;20388;-72
2023/09/29 09:26:19;;;;;;;10.07;4.60;;;;;;;;;;5113091;27;20031;-70
2023/09/29 09:28:44;;;;;;;9.02;4.88;;;;;;;;;;5099032;28;20035;-71
2023/09/29 09:31:10;;;;;;;8.27;3.90;;;;;;;;;;5101148;27;20449;-71
2023/09/29 09:33:35;;;;;;;6.15;4.18;;;;;;;;;;5112214;27;20084;-72
2023/09/29 09:36:09;;;;;;;10.82;4.60;;;;;;;;;;5121989;27;20114;-71
2023/09/29 09:38:35;;;;;;;6.90;4.78;;;;;;;;;;5121828;27;20342;-73
2023/09/29 09:41:01;;;;;;;7.53;4.82;;;;;;;;;;5120768;27;20459;-70
2023/09/29 09:43:29;;;;;;;8.43;5.30;;;;;;;;;;5122114;27;20034;-72
2023/09/29 09:46:03;;;;;;;7.18;4.65;;;;;;;;;;5113199;27;20023;-71
2023/09/29 09:48:30;;;;;;;11.32;4.40;;;;;;;;;;5118734;27;20034;-73
2023/09/29 09:50:57;;;;;;;11.38;4.40;;;;;;;;;;5120984;27;20556;-71
2023/09/29 09:53:25;;;;;;;9.90;4.38;;;;;;;;;;5118784;27;20023;-70
2023/09/29 09:56:01;;;;;;;7.47;4.18;;;;;;;;;;5113963;27;20023;-71
2023/09/29 09:58:27;;;;;;;6.50;3.65;;;;;;;;;;5120995;27;20035;-72
2023/09/29 10:00:56;;;;;;;4.80;3.80;;;;;;;;;;5122059;27;20028;-73
2023/09/29 10:03:21;;;;;;;;;;;;;;;;;;5110106;27;20134;-73
2023/09/29 10:05:52;;;;;;;8.23;3.70;;;;;;;;;;5102798;27;20010;-71
2023/09/29 10:08:30;;;;;;;6.65;3.50;;;;;;;;;;5100355;27;20072;-70
2023/09/29 10:11:11;;;;;;;4.22;3.20;;;;;;;;;;5106453;27;20034;-70
2023/09/29 10:13:36;;;;;;;6.18;3.22;;;;;;;;;;5100751;27;20019;-73
2023/09/29 10:16:05;;;;;;;8.70;3.70;;;;;;;;;;5099553;27;20035;-71
2023/09/29 10:18:32;;;;;;;10.32;3.50;;;;;;;;;;5101116;27;20024;-70
2023/09/29 10:21:05;;;;;;;5.28;3.92;;;;;;;;;;5102654;27;20530;-69
2023/09/29 10:23:42;;;;;;;6.65;3.55;;;;;;;;;;5102766;27;20027;-71
2023/09/29 10:26:10;;;;;;;6.93;3.33;;;;;;;;;;5108674;27;20037;-72
2023/09/29 10:28:39;;;;;;;10.45;3.53;;;;;;;;;;5099426;27;20023;-74
2023/09/29 10:31:04;;;;;;;;;;;;;;;;;;5103032;27;20015;-72
2023/09/29 10:33:29;;;;;;;4.40;3.20;;;;;;;;;;5097719;27;19930;-71
2023/09/29 10:35:54;;;;;;;4.43;3.40;;;;;;;;;;5097906;27;20027;-71
2023/09/29 10:38:26;;;;;;;6.15;3.17;;;;;;;;;;5101117;27;20027;-71
2023/09/29 10:40:52;;;;;;;4.82;3.33;;;;;;;;;;5099188;27;20031;-70
2023/09/29 10:43:26;;;;;;;5.57;3.10;;;;;;;;;;5099765;27;20353;-71
2023/09/29 10:45:52;;;;;;;8.48;3.47;;;;;;;;;;5096767;27;20434;-71
2023/09/29 10:48:26;;;;;;;8.13;3.42;;;;;;;;;;5110313;27;20027;-70
2023/09/29 10:50:52;;;;;;;8.85;3.00;;;;;;;;;;5115759;27;20039;-73
2023/09/29 10:53:21;;;;;;;7.32;3.55;;;;;;;;;;5117280;27;20019;-70
2023/09/29 10:55:51;;;;;;;11.18;4.32;;;;;;;;;;5113163;27;20092;-70
2023/09/29 10:58:17;;;;;;;6.90;4.13;;;;;;;;;;5114786;27;20028;-73
2023/09/29 11:00:52;;;;;;;8.57;4.18;;;;;;;;;;5118961;27;20376;-73
2023/09/29 11:03:18;;;;;;;7.18;4.80;;;;;;;;;;5114480;27;20035;-71
2023/09/29 11:05:51;;;;;;;10.25;4.03;;;;;;;;;;5103005;27;20039;-70
2023/09/29 11:08:19;;;;;;;6.10;4.43;;;;;;;;;;5106365;27;20032;-72
2023/09/29 11:10:45;;;;;;;;;;;;;;;;;;5115460;27;20024;-71
2023/09/29 11:13:16;;;;;;;6.47;3.17;;;;;;;;;;5114303;27;19959;-71
2023/09/29 11:15:42;;;;;;;5.80;3.03;;;;;;;;;;5116821;27;20942;-71
2023/09/29 11:18:07;;;;;;;3.92;3.10;;;;;;;;;;5115569;27;20054;-71
2023/09/29 11:20:33;;;;;;;9.13;3.00;;;;;;;;;;5116585;27;20038;-71
2023/09/29 11:23:06;;;;;;;7.65;3.03;;;;;;;;;;5114323;27;20348;-74
2023/09/29 11:25:32;;;;;;;5.53;2.80;;;;;;;;;;5118350;27;20053;-70
2023/09/29 11:27:57;;;;;;;8.05;3.33;;;;;;;;;;5117334;27;20057;-70
2023/09/29 11:30:24;;;;;;;4.40;2.92;;;;;;;;;;5113082;27;20438;-70
2023/09/29 11:32:53;;;;;;;6.78;3.22;;;;;;;;;;5115955;27;20494;-72
2023/09/29 11:35:21;;;;;;;7.57;2.75;;;;;;;;;;5115630;27;20140;-74
2023/09/29 11:37:47;;;;;;;9.02;2.85;;;;;;;;;;5114491;27;20342;-72
2023/09/29 11:40:12;;;;;;;9.02;3.30;;;;;;;;;;5115687;27;20087;-71
2023/09/29 11:42:38;;;;;;;7.15;3.33;;;;;;;;;;5118466;27;20114;-71
2023/09/29 11:45:13;;;;;;;5.60;3.03;;;;;;;;;;5113653;27;20515;-70
2023/09/29 11:47:42;;;;;;;10.10;3.08;;;;;;;;;;5113930;27;20446;-70
2023/09/29 11:50:11;;;;;;;7.82;3.75;;;;;;;;;;5114546;27;20046;-73
2023/09/29 11:52:39;;;;;;;4.47;3.00;;;;;;;;;;5117006;27;20513;-71
2023/09/29 11:55:08;;;;;;;10.90;3.47;;;;;;;;;;5114201;27;20064;-70
2023/09/29 11:57:33;;;;;;;;;;;;;;;;;;5117048;27;20031;-71
2023/09/29 11:59:59;;;;;;;5.10;2.90;;;;;;;;;;5116270;27;20247;-70
2023/09/29 12:02:24;;;;;;;7.78;3.20;;;;;;;;;;5114465;27;20030;-73
2023/09/29 12:04:49;;;;;;;4.45;2.95;;;;;;;;;;5117798;27;20023;-71
2023/09/29 12:07:14;;;;;;;11.13;3.80;;;;;;;;;;5115655;27;20034;-70
2023/09/29 12:09:40;;;;;;;8.57;2.70;;;;;;;;;;5113735;27;20506;-73
2023/09/29 12:12:06;;;;;;;8.38;3.38;;;;;;;;;;5116020;27;20439;-70
2023/09/29 12:14:31;;;;;;;5.30;2.65;;;;;;;;;;5115328;27;20028;-70
2023/09/29 12:16:58;;;;;;;7.47;3.25;;;;;;;;;;5116639;27;20020;-71
2023/09/29 12:19:24;;;;;;;14.38;3.35;;;;;;;;;;5113632;27;20103;-71
2023/09/29 12:21:49;;;;;;;11.55;3.30;;;;;;;;;;5116523;27;20176;-73
2023/09/29 12:24:14;;;;;;;9.63;3.58;;;;;;;;;;5115803;27;20051;-71
2023/09/29 12:26:46;;;;;;;6.30;3.10;;;;;;;;;;5113920;27;20038;-71
2023/09/29 12:29:11;;;;;;;7.05;3.10;;;;;;;;;;5115974;27;20056;-70
2023/09/29 12:31:37;;;;;;;5.53;3.38;;;;;;;;;;5116258;27;20027;-71
2023/09/29 12:34:04;;;;;;;7.38;3.47;;;;;;;;;;5114347;27;20443;-70
2023/09/29 12:36:30;;;;;;;9.20;3.30;;;;;;;;;;5113199;27;20483;-71
2023/09/29 12:38:55;;;;;;;5.30;3.42;;;;;;;;;;5116963;27;20031;-71
2023/09/29 12:41:21;;;;;;;7.00;3.58;;;;;;;;;;5114229;27;20031;-71
2023/09/29 12:43:47;;;;;;;7.80;3.83;;;;;;;;;;5114786;27;20027;-72
2023/09/29 12:46:12;;;;;;;15.40;10.25;;;;;;;;;;5116182;27;20469;-70
2023/09/29 12:48:38;;;;;;;14.63;8.15;;;;;;;;;;5116019;27;20031;-70
2023/09/29 12:51:04;;;;;;;7.63;5.20;;;;;;;;;;5117817;27;20370;-70
2023/09/29 12:53:29;;;;;;;9.50;3.70;;;;;;;;;;5116255;27;22444;-71
2023/09/29 12:55:54;;;;;;;7.07;3.25;;;;;;;;;;5113596;27;20148;-71
2023/09/29 12:58:20;;;;;;;8.30;3.22;;;;;;;;;;5116794;27;20103;-70
2023/09/29 13:00:45;;;;;;;5.32;3.17;;;;;;;;;;5116410;27;20638;-70
2023/09/29 13:03:11;;;;;;;7.43;3.20;;;;;;;;;;5111573;27;20426;-69
2023/09/29 13:05:37;;;;;;;8.32;3.42;;;;;;;;;;5110335;27;20026;-70
2023/09/29 13:08:03;;;;;;;7.13;2.92;;;;;;;;;;5116590;27;20019;-70
2023/09/29 13:10:31;;;;;;;5.68;3.53;;;;;;;;;;5113740;27;20108;-70
2023/09/29 13:12:56;;;;;;;4.28;2.70;;;;;;;;;;5115714;27;20027;-70
2023/09/29 13:15:21;;;;;;;8.02;3.55;;;;;;;;;;5114492;27;20023;-70
2023/09/29 13:17:48;;;;;;;9.82;3.60;;;;;;;;;;5113925;27;20112;-70
2023/09/29 13:20:13;;;;;;;7.07;3.08;;;;;;;;;;5116260;27;20031;-73
2023/09/29 13:22:38;;;;;;;5.75;3.00;;;;;;;;;;5113037;27;20039;-71
2023/09/29 13:25:05;;;;;;;5.57;3.00;;;;;;;;;;5115111;27;20028;-73
2023/09/29 13:27:32;;;;;;;6.25;3.55;;;;;;;;;;5112191;27;20019;-71
2023/09/29 13:29:57;;;;;;;7.82;3.40;;;;;;;;;;5114933;28;20755;-69
2023/09/29 13:32:23;;;;;;;6.45;3.13;;;;;;;;;;5112891;27;20027;-70
2023/09/29 13:34:48;;;;;;;8.35;3.40;;;;;;;;;;5113020;27;20062;-72
2023/09/29 13:37:18;;;;;;;7.30;2.95;;;;;;;;;;5115453;28;20028;-70
2023/09/29 13:39:44;;;;;;;10.60;3.72;;;;;;;;;;5115031;28;20031;-72
2023/09/29 13:42:09;;;;;;;7.15;3.40;;;;;;;;;;5114754;27;20164;-70
2023/09/29 13:44:35;;;;;;;5.00;3.17;;;;;;;;;;5115257;28;20106;-71
2023/09/29 13:47:00;;;;;;;6.00;3.67;;;;;;;;;;5114808;27;20027;-71
2023/09/29 13:49:25;;;;;;;6.97;3.58;;;;;;;;;;5115738;27;20075;-71
2023/09/29 13:51:51;;;;;;;8.98;3.60;;;;;;;;;;5112898;27;20159;-71
2023/09/29 13:54:16;;;;;;;5.50;3.17;;;;;;;;;;5108396;28;20023;-74
2023/09/29 13:56:41;;;;;;;9.52;3.15;;;;;;;;;;5103171;27;20027;-70
2023/09/29 13:59:07;;;;;;;10.02;3.47;;;;;;;;;;5101798;27;20085;-71
2023/09/29 14:01:32;;;;;;;9.20;3.30;;;;;;;;;;5101963;27;20067;-71
2023/09/29 14:03:59;;;;;;;9.88;4.05;;;;;;;;;;5106473;27;20019;-71
2023/09/29 14:06:25;;;;;;;6.40;3.63;;;;;;;;;;5105445;28;20023;-71
2023/09/29 14:08:50;;;;;;;6.97;3.20;;;;;;;;;;5103396;27;20379;-70
2023/09/29 14:11:15;;;;;;;5.05;2.92;;;;;;;;;;5105856;28;20051;-70
2023/09/29 14:13:41;;;;;;;8.20;3.33;;;;;;;;;;5105937;28;20083;-71
2023/09/29 14:16:06;;;;;;;6.32;3.33;;;;;;;;;;5110870;27;20073;-71
2023/09/29 14:18:31;;;;;;;5.32;3.10;;;;;;;;;;5105946;27;20024;-70
2023/09/29 14:20:57;;;;;;;4.50;3.13;;;;;;;;;;5104432;27;20031;-73
2023/09/29 14:23:22;;;;;;;10.23;4.22;;;;;;;;;;5113084;27;20019;-71
2023/09/29 14:25:47;;;;;;;8.13;3.63;;;;;;;;;;5115258;27;20019;-70
2023/09/29 14:28:13;;;;;;;8.43;3.22;;;;;;;;;;5108235;27;20019;-72
2023/09/29 14:30:40;;;;;;;8.15;3.38;;;;;;;;;;5114856;27;20025;-70
2023/09/29 14:33:08;;;;;;;11.80;3.78;;;;;;;;;;5112569;27;20402;-71